Hilbert, Wisconsin
Current Conditions -  °F | °C
As of 10:55 PM on Sunday 21 Dec 2014 (Local Time) from KATW Reporting Station
Overcast Overcast  
Wind Chill: 25°   Ceiling: 1800
Heat Index: 34°   Visibility: 7mi
Dew Point: 30°   Wind: 12mph
Humidity: 87%   Direction: 170°S
Pressure: 29.96"   Gusts: 21mph
Location:  44.14°N, 88.16°W
Report Text: KATW 220455Z AUTO 17010G18KT 7SM OVC018 01/M01 A2996 RMK AO2
Loading
Personal Weather Stations






























Interactive Weather Map New forecast layout! Learn more

10-Day Weather Forecast

Advertisements
Track Severe Weather on mobile